< < Back
Terminal Aerodrome Forecast


Current Version              Previous Versions:   1  2  3  4  5  6  7  8  9  

Terminal Aerodrome Forecast

059
FTUS42 KMLB 271720
TAFDAB
TAF
KDAB 271720Z 2718/2818 09008KT P6SM FEW040
     FM280200 19003KT P6SM SKC=

Latest METAR

466
SAUS80 KWBC 272300
MTRDAB
METAR KDAB 272253Z 08006KT 10SM FEW040 SCT065 BKN110 BKN250 31/24 A3003
RMK AO2 SLP169 T03060244 $


USA.gov is the U.S. government's official web portal to all federal, state and local government web resources and services.